Sunday, May 27, 2018, 5:54 PM GMT
Back to Local

CXSH, Shawinigan CS , Que.

Location: , , Canada Lat: 46.583
Local Time: 5:54 PM GMT (17:54 GMT) Lon: -72.583
Time Zone: GMT Elev: 360 ft

Show me the last for .
Show Coded

Time T Td Feel RH Dir Speed Gust Alt SLP Vis Weather Sky Remarks
2018-05-27 17:00 64 43 - 46 70° 6 - - 30.09 0 None
2018-05-27 16:00 63 40 - 43 80° 7 - - 30.11 0 None
2018-05-27 15:00 62 39 - 42 80° 8 - - 30.12 0 None
2018-05-27 14:00 60 37 - 42 90° 7 - - 30.13 0 None
2018-05-27 13:00 57 36 - 43 80° 7 - - 30.13 0 None
2018-05-27 12:00 54 34 - 45 60° 9 - - 30.11 0 None
2018-05-27 11:00 53 34 - 47 70° 8 - - 30.12 0 None
2018-05-27 10:00 50 34 47 53 50° 7 - - 30.11 0 None
2018-05-27 09:00 49 35 45 58 50° 8 - - 30.10 0 None
2018-05-27 08:00 49 35 47 59 50° 6 - - 30.10 0 None
2018-05-27 07:00 50 34 47 55 50° 7 - - 30.09 0 None
2018-05-27 06:00 49 32 46 51 50° 7 - - 30.08 0 None
2018-05-27 05:00 52 33 - 47 40° 6 - - 30.08 0 None
2018-05-27 04:00 54 36 - 49 40° 7 - - 30.06 0 None
2018-05-27 03:00 55 37 - 49 40° 7 - - 30.04 0 None
2018-05-27 02:00 57 34 - 41 50° 6 - - 30.03 0 None
2018-05-27 01:00 60 36 - 41 50° 6 - - 30.00 0 None
2018-05-27 00:00 66 22 - 18 20° 7 - - 29.96 0 None
2018-05-26 23:00 68 25 - 20 50° 5 - - 29.93 0 None
2018-05-26 22:00 69 28 - 21 50° 7 - - 29.91 0 None
2018-05-26 21:00 70 26 - 19 40° 10 - - 29.90 0 None
2018-05-26 20:00 71 32 - 23 40° 7 - - 29.87 0 None
2018-05-26 19:00 71 33 - 24 360° 8 - - 29.86 0 Peak wind: 19 mph (17 kts) from 350° at 35 min
2018-05-26 18:00 69 30 - 23 350° 10 18 - 29.85 0 None

Support USWX by starting your Amazon purchase here.